createdAt,value
2022-10-05T00:00:28.288Z,99352.69
2022-10-05T00:03:15.519Z,99353.72
2022-10-05T00:05:45.833Z,99347.69
2022-10-05T00:08:24.027Z,99349.41
2022-10-05T00:10:52.594Z,99342.34
2022-10-05T00:13:30.443Z,99339.91
2022-10-05T00:16:19.919Z,99321.69
2022-10-05T00:18:51.974Z,99316.50
2022-10-05T00:21:26.658Z,99308.75
2022-10-05T00:23:58.113Z,99316.78
2022-10-05T00:26:33.280Z,99322.25
2022-10-05T00:29:02.521Z,99325.63
2022-10-05T00:31:36.279Z,99316.63
2022-10-05T00:34:03.304Z,99317.50
2022-10-05T00:36:30.429Z,99317.63
2022-10-05T00:38:57.225Z,99315.84
2022-10-05T00:42:08.571Z,99315.78
2022-10-05T00:44:58.071Z,99312.16
2022-10-05T00:47:59.882Z,99304.53
2022-10-05T00:51:21.099Z,99304.91
2022-10-05T00:54:05.831Z,99300.72
2022-10-05T00:56:40.138Z,99301.78
2022-10-05T00:59:42.624Z,99293.16
2022-10-05T01:02:30.905Z,99295.94
2022-10-05T01:05:24.221Z,99291.59
2022-10-05T01:08:13.354Z,99281.41
2022-10-05T01:11:02.157Z,99296.59
2022-10-05T01:13:49.268Z,99294.91
2022-10-05T01:16:51.056Z,99290.25
2022-10-05T01:19:45.993Z,99299.13
2022-10-05T01:22:54.042Z,99285.19
2022-10-05T01:25:51.667Z,99293.38
2022-10-05T01:28:28.927Z,99289.97
2022-10-05T01:31:23.022Z,99278.66
2022-10-05T01:34:12.713Z,99297.81
2022-10-05T01:37:21.253Z,99289.84
2022-10-05T01:40:58.371Z,99289.84
2022-10-05T01:43:46.603Z,99291.59
2022-10-05T01:46:46.091Z,99294.31
2022-10-05T01:49:54.282Z,99289.16
2022-10-05T01:53:00.103Z,99281.41
2022-10-05T01:55:39.156Z,99277.13
2022-10-05T01:58:30.458Z,99279.72
2022-10-05T02:01:10.380Z,99277.91
2022-10-05T02:03:47.533Z,99283.19
2022-10-05T02:06:20.517Z,99286.94
2022-10-05T02:08:53.638Z,99293.09
2022-10-05T02:11:20.837Z,99298.38
2022-10-05T02:14:10.548Z,99305.44
2022-10-05T02:16:44.366Z,99302.00
2022-10-05T02:19:35.084Z,99294.97
2022-10-05T02:22:10.102Z,99308.97
2022-10-05T02:24:46.289Z,99307.03
2022-10-05T02:27:21.426Z,99304.41
2022-10-05T02:29:50.954Z,99304.44
2022-10-05T02:32:27.424Z,99304.44
2022-10-05T02:35:04.083Z,99298.28
2022-10-05T02:38:07.514Z,99310.63
2022-10-05T02:40:55.760Z,99305.25
2022-10-05T02:43:50.207Z,99305.34
2022-10-05T02:46:36.709Z,99299.25
2022-10-05T02:49:42.279Z,99285.28
2022-10-05T02:52:28.118Z,99287.34
2022-10-05T02:55:24.741Z,99289.25
2022-10-05T02:58:16.382Z,99291.22
2022-10-05T03:01:03.094Z,99289.66
2022-10-05T03:03:45.125Z,99285.34
2022-10-05T03:06:27.506Z,99283.72
2022-10-05T03:09:05.964Z,99279.13
2022-10-05T03:12:00.208Z,99271.34
2022-10-05T03:14:50.827Z,99261.69
2022-10-05T03:17:23.320Z,99259.09
2022-10-05T03:20:17.276Z,99244.25
2022-10-05T03:23:01.452Z,99254.00
2022-10-05T03:26:06.082Z,99267.97
2022-10-05T03:28:57.746Z,99275.59
2022-10-05T03:31:51.318Z,99273.84
2022-10-05T03:34:53.915Z,99266.69
2022-10-05T03:37:42.000Z,99259.63
2022-10-05T03:40:40.336Z,99247.38
2022-10-05T03:43:41.843Z,99234.94
2022-10-05T03:46:40.335Z,99236.59
2022-10-05T03:49:52.789Z,99238.25
2022-10-05T03:52:36.613Z,99247.66
2022-10-05T03:55:34.087Z,99264.38
2022-10-05T03:58:14.995Z,99268.97
2022-10-05T04:00:49.021Z,99267.38
2022-10-05T04:03:30.246Z,99274.38
2022-10-05T04:06:43.250Z,99271.78
2022-10-05T04:09:30.321Z,99264.81
2022-10-05T04:12:15.363Z,99277.06
2022-10-05T04:14:51.487Z,99276.97
2022-10-05T04:17:33.131Z,99289.16
2022-10-05T04:20:17.671Z,99285.69
2022-10-05T04:23:17.123Z,99277.94
2022-10-05T04:25:53.977Z,99276.97
2022-10-05T04:28:45.097Z,99278.81
2022-10-05T04:31:28.230Z,99281.78
2022-10-05T04:34:27.422Z,99273.09
2022-10-05T04:37:06.105Z,99269.78
2022-10-05T04:40:28.100Z,99262.84
2022-10-05T04:43:17.613Z,99257.72
2022-10-05T04:46:12.978Z,99255.25
2022-10-05T04:49:04.177Z,99247.59
2022-10-05T04:51:42.671Z,99244.94
2022-10-05T04:54:56.111Z,99253.72
2022-10-05T04:57:32.456Z,99258.16
2022-10-05T05:00:22.630Z,99250.31
2022-10-05T05:03:20.226Z,99251.19
2022-10-05T05:06:18.367Z,99256.41
2022-10-05T05:09:22.631Z,99246.00
2022-10-05T05:12:23.586Z,99248.84
2022-10-05T05:15:26.777Z,99242.72
2022-10-05T05:18:26.579Z,99242.88
2022-10-05T05:21:35.506Z,99249.00
2022-10-05T05:24:30.407Z,99247.09
2022-10-05T05:27:18.817Z,99256.69
2022-10-05T05:30:46.007Z,99266.16
2022-10-05T05:33:40.800Z,99270.41
2022-10-05T05:36:32.179Z,99265.97
2022-10-05T05:39:36.639Z,99271.25
2022-10-05T05:42:53.278Z,99278.44
2022-10-05T05:45:43.802Z,99274.88
2022-10-05T05:48:26.896Z,99269.72
2022-10-05T05:51:07.703Z,99276.72
2022-10-05T05:53:44.455Z,99267.88
2022-10-05T05:56:29.363Z,99270.66
2022-10-05T05:59:20.410Z,99276.84
2022-10-05T06:02:07.014Z,99280.38
2022-10-05T06:04:52.492Z,99270.47
2022-10-05T06:07:30.327Z,99276.44
2022-10-05T06:10:58.685Z,99284.31
2022-10-05T06:13:38.518Z,99278.13
2022-10-05T06:16:46.436Z,99277.06
2022-10-05T06:19:18.633Z,99276.09
2022-10-05T06:22:05.565Z,99276.84
2022-10-05T06:25:11.816Z,99277.53
2022-10-05T06:28:13.479Z,99273.94
2022-10-05T06:30:58.542Z,99276.50
2022-10-05T06:33:53.895Z,99279.03
2022-10-05T06:36:26.198Z,99275.47
2022-10-05T06:39:31.924Z,99282.34
2022-10-05T06:42:29.244Z,99294.59
2022-10-05T06:45:16.489Z,99297.09
2022-10-05T06:48:08.267Z,99295.13
2022-10-05T06:51:04.370Z,99296.59
2022-10-05T06:54:39.394Z,99305.19
2022-10-05T06:57:24.578Z,99305.94
2022-10-05T07:00:17.844Z,99309.94
2022-10-05T07:03:05.163Z,99307.06
2022-10-05T07:06:05.852Z,99306.69
2022-10-05T07:08:38.927Z,99311.69
2022-10-05T07:11:27.361Z,99307.00
2022-10-05T07:14:21.888Z,99312.84
2022-10-05T07:17:22.445Z,99320.56
2022-10-05T07:20:37.125Z,99314.19
2022-10-05T07:23:45.358Z,99319.22
2022-10-05T07:26:38.014Z,99316.50
2022-10-05T07:29:07.460Z,99318.19
2022-10-05T07:32:07.473Z,99313.56
2022-10-05T07:34:49.892Z,99318.84
2022-10-05T07:37:53.676Z,99306.34
2022-10-05T07:40:59.179Z,99299.00
2022-10-05T07:44:00.979Z,99304.91
2022-10-05T07:46:55.111Z,99301.13
2022-10-05T07:49:42.398Z,99307.94
2022-10-05T07:52:34.922Z,99296.25
2022-10-05T07:55:25.286Z,99302.19
2022-10-05T07:58:23.530Z,99296.47
2022-10-05T08:01:31.300Z,99293.56
2022-10-05T08:04:22.926Z,99281.81
2022-10-05T08:07:17.072Z,99285.88
2022-10-05T08:09:54.760Z,99283.91
2022-10-05T08:12:55.037Z,99275.69
2022-10-05T08:15:31.619Z,99274.47
2022-10-05T08:18:35.994Z,99276.97
2022-10-05T08:21:11.883Z,99280.22
2022-10-05T08:24:06.087Z,99279.16
2022-10-05T08:26:53.183Z,99278.00
2022-10-05T08:29:35.349Z,99283.09
2022-10-05T08:32:26.397Z,99282.00
2022-10-05T08:35:34.336Z,99289.69
2022-10-05T08:38:18.539Z,99295.97
2022-10-05T08:41:32.374Z,99294.28
2022-10-05T08:44:37.863Z,99293.19
2022-10-05T08:47:36.330Z,99288.38
2022-10-05T08:50:25.183Z,99287.22
2022-10-05T08:53:25.686Z,99294.97
2022-10-05T08:56:33.360Z,99288.44
2022-10-05T08:59:40.785Z,99294.22
2022-10-05T09:02:44.534Z,99293.31
2022-10-05T09:06:14.584Z,99292.06
2022-10-05T09:09:15.215Z,99299.72
2022-10-05T09:12:40.424Z,99289.56
2022-10-05T09:16:03.353Z,99298.81
2022-10-05T09:18:55.072Z,99294.81
2022-10-05T09:21:58.305Z,99290.81
2022-10-05T09:24:56.283Z,99290.56
2022-10-05T09:28:19.601Z,99291.66
2022-10-05T09:31:24.087Z,99290.25
2022-10-05T09:34:32.561Z,99291.59
2022-10-05T09:37:32.556Z,99288.44
2022-10-05T09:40:14.721Z,99285.56
2022-10-05T09:43:20.179Z,99273.56
2022-10-05T09:46:25.755Z,99279.41
2022-10-05T09:49:07.984Z,99280.56
2022-10-05T09:52:06.330Z,99269.16
2022-10-05T09:55:14.554Z,99268.44
2022-10-05T09:57:53.634Z,99265.28
2022-10-05T10:01:09.303Z,99263.75
2022-10-05T10:03:55.457Z,99247.25
2022-10-05T10:06:51.528Z,99249.47
2022-10-05T10:10:01.391Z,99248.84
2022-10-05T10:12:53.592Z,99243.09
2022-10-05T10:15:38.758Z,99247.19
2022-10-05T10:18:46.063Z,99240.72
2022-10-05T10:22:22.493Z,99236.19
2022-10-05T10:25:52.412Z,99237.63
2022-10-05T10:28:42.132Z,99236.13
2022-10-05T10:31:45.882Z,99238.25
2022-10-05T10:34:43.876Z,99227.25
2022-10-05T10:37:35.512Z,99232.13
2022-10-05T10:40:20.895Z,99228.16
2022-10-05T10:43:29.951Z,99227.78
2022-10-05T10:46:39.547Z,99213.13
2022-10-05T10:49:35.255Z,99211.03
2022-10-05T10:52:41.547Z,99202.53
2022-10-05T10:55:34.072Z,99200.34
2022-10-05T10:58:47.400Z,99196.75
2022-10-05T11:01:32.868Z,99203.31
2022-10-05T11:04:47.619Z,99197.69
2022-10-05T11:07:48.423Z,99192.06
2022-10-05T11:11:02.544Z,99194.09
2022-10-05T11:14:02.819Z,99184.91
2022-10-05T11:16:42.002Z,99179.59
2022-10-05T11:20:02.632Z,99169.28
2022-10-05T11:22:33.273Z,99171.44
2022-10-05T11:25:44.592Z,99172.13
2022-10-05T11:28:39.560Z,99160.00
2022-10-05T11:31:37.977Z,99163.91
2022-10-05T11:34:49.194Z,99146.44
2022-10-05T11:37:51.243Z,99155.84
2022-10-05T11:40:26.865Z,99148.47
2022-10-05T11:43:50.583Z,99147.22
2022-10-05T11:46:30.558Z,99148.72
2022-10-05T11:49:23.379Z,99140.63
2022-10-05T11:52:11.099Z,99145.84
2022-10-05T11:55:13.507Z,99135.06
2022-10-05T11:58:09.562Z,99131.03
2022-10-05T12:00:44.993Z,99123.66
2022-10-05T12:03:33.854Z,99135.84
2022-10-05T12:06:51.816Z,99126.78
2022-10-05T12:10:08.662Z,99126.06
2022-10-05T12:13:02.460Z,99120.28
2022-10-05T12:15:43.365Z,99119.97
2022-10-05T12:18:32.658Z,99119.53
2022-10-05T12:21:27.721Z,99119.34
2022-10-05T12:24:26.845Z,99120.81
2022-10-05T12:27:08.233Z,99118.03
2022-10-05T12:30:01.612Z,99111.63
2022-10-05T12:32:58.135Z,99113.25
2022-10-05T12:36:01.471Z,99114.00
2022-10-05T12:38:52.830Z,99105.16
2022-10-05T12:41:32.271Z,99100.66
2022-10-05T12:44:49.197Z,99100.44
2022-10-05T12:47:53.819Z,99101.06
2022-10-05T12:50:49.232Z,99093.91
2022-10-05T12:53:48.435Z,99097.19
2022-10-05T12:56:52.255Z,99100.44
2022-10-05T12:59:46.343Z,99102.88
2022-10-05T13:02:42.574Z,99099.75
2022-10-05T13:05:09.618Z,99094.00
2022-10-05T13:08:18.095Z,99092.06
2022-10-05T13:11:35.165Z,99098.88
2022-10-05T13:14:17.977Z,99092.25
2022-10-05T13:17:03.915Z,99097.34
2022-10-05T13:19:41.108Z,99088.38
2022-10-05T13:22:37.294Z,99090.94
2022-10-05T13:25:22.657Z,99086.44
2022-10-05T13:28:07.777Z,99091.91
2022-10-05T13:30:39.132Z,99087.31
2022-10-05T13:33:18.063Z,99082.81
2022-10-05T13:36:30.109Z,99082.69
2022-10-05T13:39:05.546Z,99079.91
2022-10-05T13:41:55.174Z,99077.13
2022-10-05T13:44:53.798Z,99074.56
2022-10-05T13:48:03.786Z,99077.25
2022-10-05T13:50:36.264Z,99077.25
2022-10-05T13:53:37.255Z,99087.72
2022-10-05T13:56:22.315Z,99076.03
2022-10-05T13:59:12.148Z,99070.69
2022-10-05T14:01:57.037Z,99069.84
2022-10-05T14:04:57.618Z,99071.69
2022-10-05T14:07:38.932Z,99077.03
2022-10-05T14:10:44.030Z,99068.22
2022-10-05T14:13:43.454Z,99068.22
2022-10-05T14:16:13.586Z,99063.00
2022-10-05T14:19:27.103Z,99068.44
2022-10-05T14:22:02.175Z,99066.66
2022-10-05T14:24:44.231Z,99067.59
2022-10-05T14:27:28.441Z,99061.41
2022-10-05T14:30:25.688Z,99060.44
2022-10-05T14:33:22.368Z,99057.66
2022-10-05T14:35:53.623Z,99057.53
2022-10-05T14:38:32.595Z,99054.00
2022-10-05T14:41:19.196Z,99055.75
2022-10-05T14:44:28.816Z,99056.59
2022-10-05T14:47:02.834Z,99060.84
2022-10-05T14:49:36.179Z,99062.56
2022-10-05T14:52:32.657Z,99060.72
2022-10-05T14:55:30.268Z,99055.38
2022-10-05T14:58:24.910Z,99052.69
2022-10-05T15:01:35.062Z,99055.25
2022-10-05T15:04:37.000Z,99044.47
2022-10-05T15:07:21.689Z,99044.47
2022-10-05T15:10:36.979Z,99056.13
2022-10-05T15:13:19.987Z,99042.78
2022-10-05T15:16:05.396Z,99043.72
2022-10-05T15:18:34.750Z,99040.19
2022-10-05T15:21:56.262Z,99048.34
2022-10-05T15:24:30.400Z,99043.00
2022-10-05T15:27:03.511Z,99046.63
2022-10-05T15:30:19.314Z,99051.34
2022-10-05T15:33:09.309Z,99042.69
2022-10-05T15:36:22.614Z,99048.16
2022-10-05T15:39:36.339Z,99043.13
2022-10-05T15:42:14.664Z,99039.84
2022-10-05T15:45:10.781Z,99047.84
2022-10-05T15:48:00.100Z,99043.59
2022-10-05T15:50:45.968Z,99046.38
2022-10-05T15:53:27.250Z,99036.88
2022-10-05T15:56:30.034Z,99045.00
2022-10-05T15:59:18.725Z,99041.78
2022-10-05T16:01:57.187Z,99039.13
2022-10-05T16:04:41.458Z,99043.72
2022-10-05T16:07:39.463Z,99036.91
2022-10-05T16:10:21.621Z,99038.81
2022-10-05T16:13:10.108Z,99044.41
2022-10-05T16:16:12.713Z,99047.19
2022-10-05T16:19:08.278Z,99049.44
2022-10-05T16:22:28.360Z,99048.81
2022-10-05T16:25:08.905Z,99062.41
2022-10-05T16:28:19.734Z,99060.78
2022-10-05T16:31:00.196Z,99061.94
2022-10-05T16:33:55.362Z,99058.53
2022-10-05T16:36:53.182Z,99059.59
2022-10-05T16:39:55.147Z,99067.69
2022-10-05T16:42:44.044Z,99067.91
2022-10-05T16:45:45.107Z,99062.69
2022-10-05T16:48:26.732Z,99069.09
2022-10-05T16:51:09.006Z,99073.72
2022-10-05T16:53:46.621Z,99070.28
2022-10-05T16:56:26.001Z,99068.56
2022-10-05T16:59:36.991Z,99074.13
2022-10-05T17:02:18.334Z,99069.88
2022-10-05T17:05:30.482Z,99077.97
2022-10-05T17:08:30.545Z,99087.16
2022-10-05T17:11:22.202Z,99086.41
2022-10-05T17:13:57.999Z,99091.09
2022-10-05T17:17:07.092Z,99085.88
2022-10-05T17:20:29.397Z,99092.41
2022-10-05T17:23:29.307Z,99091.63
2022-10-05T17:26:47.208Z,99093.53
2022-10-05T17:29:45.882Z,99092.81
2022-10-05T17:32:39.626Z,99088.50
2022-10-05T17:35:39.846Z,99091.41
2022-10-05T17:38:20.311Z,99095.88
2022-10-05T17:41:30.411Z,99101.31
2022-10-05T17:44:24.863Z,99101.41
2022-10-05T17:47:01.459Z,99098.88
2022-10-05T17:49:34.415Z,99107.19
2022-10-05T17:52:42.409Z,99102.81
2022-10-05T17:55:44.899Z,99106.66
2022-10-05T17:58:56.327Z,99106.75
2022-10-05T18:01:38.650Z,99105.13
2022-10-05T18:04:11.932Z,99103.53
2022-10-05T18:06:59.067Z,99102.78
2022-10-05T18:09:27.334Z,99099.25
2022-10-05T18:12:39.729Z,99103.00
2022-10-05T18:15:06.815Z,99101.25
2022-10-05T18:17:51.578Z,99106.69
2022-10-05T18:20:30.808Z,99105.00
2022-10-05T18:23:03.895Z,99103.38
2022-10-05T18:25:53.391Z,99101.78
2022-10-05T18:29:14.977Z,99102.75
2022-10-05T18:32:36.173Z,99100.34
2022-10-05T18:35:38.624Z,99105.78
2022-10-05T18:38:30.092Z,99106.94
2022-10-05T18:41:15.737Z,99103.63
2022-10-05T18:44:34.790Z,99115.34
2022-10-05T18:47:25.643Z,99118.09
2022-10-05T18:50:07.044Z,99124.50
2022-10-05T18:52:50.857Z,99119.28
2022-10-05T18:55:28.733Z,99123.84
2022-10-05T18:58:14.922Z,99115.09
2022-10-05T19:01:29.923Z,99114.31
2022-10-05T19:04:23.433Z,99109.97
2022-10-05T19:07:15.601Z,99114.53
2022-10-05T19:10:35.747Z,99119.97
2022-10-05T19:13:43.381Z,99115.50
2022-10-05T19:16:47.056Z,99121.00
2022-10-05T19:19:36.055Z,99120.25
2022-10-05T19:22:25.218Z,99124.94
2022-10-05T19:25:04.472Z,99127.81
2022-10-05T19:28:02.539Z,99128.84
2022-10-05T19:30:59.271Z,99127.34
2022-10-05T19:33:58.428Z,99131.03
2022-10-05T19:37:03.348Z,99142.09
2022-10-05T19:39:45.207Z,99141.22
2022-10-05T19:42:53.198Z,99138.78
2022-10-05T19:45:58.495Z,99135.25
2022-10-05T19:48:40.681Z,99138.22
2022-10-05T19:51:35.114Z,99142.88
2022-10-05T19:54:21.415Z,99143.09
2022-10-05T19:56:54.139Z,99139.63
2022-10-05T19:59:28.454Z,99149.53
2022-10-05T20:01:58.175Z,99152.28
2022-10-05T20:04:49.552Z,99153.34
2022-10-05T20:07:23.340Z,99153.53
2022-10-05T20:10:00.512Z,99158.13
2022-10-05T20:12:51.940Z,99170.69
2022-10-05T20:15:42.245Z,99168.00
2022-10-05T20:18:50.991Z,99171.81
2022-10-05T20:21:39.639Z,99166.66
2022-10-05T20:24:27.678Z,99169.31
2022-10-05T20:27:16.136Z,99163.22
2022-10-05T20:29:45.059Z,99177.50
2022-10-05T20:32:18.196Z,99176.66
2022-10-05T20:34:47.888Z,99181.97
2022-10-05T20:37:20.371Z,99179.41
2022-10-05T20:39:51.139Z,99184.81
2022-10-05T20:42:20.833Z,99184.88
2022-10-05T20:44:50.783Z,99190.41
2022-10-05T20:47:20.307Z,99189.63
2022-10-05T20:49:47.170Z,99195.16
2022-10-05T20:52:15.828Z,99193.69
2022-10-05T20:54:43.034Z,99202.66
2022-10-05T20:57:10.286Z,99204.53
2022-10-05T20:59:38.087Z,99201.09
2022-10-05T21:02:06.139Z,99203.09
2022-10-05T21:04:42.883Z,99213.84
2022-10-05T21:07:10.255Z,99205.09
2022-10-05T21:09:39.183Z,99202.53
2022-10-05T21:12:06.020Z,99207.94
2022-10-05T21:14:34.488Z,99205.53
2022-10-05T21:17:02.145Z,99205.75
2022-10-05T21:19:29.674Z,99206.66
2022-10-05T21:22:02.508Z,99207.59
2022-10-05T21:24:29.362Z,99203.34
2022-10-05T21:26:57.647Z,99204.28
2022-10-05T21:29:24.905Z,99206.84
2022-10-05T21:31:52.052Z,99215.69
2022-10-05T21:34:19.254Z,99215.69
2022-10-05T21:36:46.494Z,99216.81
2022-10-05T21:39:15.195Z,99217.66
2022-10-05T21:41:42.026Z,99221.28
2022-10-05T21:44:09.114Z,99227.47
2022-10-05T21:46:38.896Z,99227.56
2022-10-05T21:49:07.731Z,99232.97
2022-10-05T21:51:39.300Z,99227.63
2022-10-05T21:54:17.326Z,99234.00
2022-10-05T21:56:50.366Z,99230.56
2022-10-05T21:59:22.139Z,99228.09
2022-10-05T22:01:49.185Z,99231.69
2022-10-05T22:04:16.470Z,99229.97
2022-10-05T22:06:43.603Z,99231.03
2022-10-05T22:09:10.945Z,99232.75
2022-10-05T22:11:38.392Z,99231.03
2022-10-05T22:14:05.267Z,99236.34
2022-10-05T22:16:38.561Z,99233.00
2022-10-05T22:19:12.852Z,99234.91
2022-10-05T22:21:41.836Z,99231.34
2022-10-05T22:24:11.690Z,99234.19
2022-10-05T22:26:41.520Z,99232.66
2022-10-05T22:29:09.684Z,99238.06
2022-10-05T22:31:37.199Z,99241.34
2022-10-05T22:34:04.252Z,99243.13
2022-10-05T22:36:33.507Z,99240.56
2022-10-05T22:39:00.327Z,99245.19
2022-10-05T22:41:27.139Z,99241.75
2022-10-05T22:43:54.202Z,99244.41
2022-10-05T22:46:21.521Z,99249.91
2022-10-05T22:48:48.389Z,99250.78
2022-10-05T22:51:15.844Z,99258.75
2022-10-05T22:53:42.725Z,99257.03
2022-10-05T22:56:13.807Z,99259.78
2022-10-05T22:58:43.050Z,99265.09
2022-10-05T23:01:16.398Z,99260.81
2022-10-05T23:03:44.342Z,99257.28
2022-10-05T23:06:19.105Z,99260.03
2022-10-05T23:08:46.811Z,99263.56
2022-10-05T23:11:23.697Z,99260.13
2022-10-05T23:13:52.369Z,99259.34
2022-10-05T23:16:22.921Z,99265.75
2022-10-05T23:18:52.528Z,99265.75
2022-10-05T23:21:21.813Z,99277.47
2022-10-05T23:23:51.092Z,99270.53
2022-10-05T23:26:22.756Z,99275.16
2022-10-05T23:28:50.535Z,99279.78
2022-10-05T23:31:21.922Z,99272.06
2022-10-05T23:33:49.312Z,99277.53
2022-10-05T23:36:24.636Z,99277.69
2022-10-05T23:38:52.656Z,99278.72
2022-10-05T23:41:20.730Z,99280.69
2022-10-05T23:43:48.151Z,99278.19
2022-10-05T23:46:15.487Z,99289.13
2022-10-05T23:48:42.499Z,99293.06
2022-10-05T23:51:12.942Z,99291.41
2022-10-05T23:53:40.262Z,99290.72
2022-10-05T23:56:07.711Z,99293.38
2022-10-05T23:58:34.592Z,99292.69
